sensor_id;sensor_type;location;lat;lon;timestamp;pressure;altitude;pressure_sealevel;temperature;humidity
14966;BME280;7577;45.226;5.798;2023-05-14T00:02:08;98984.61;;;22.08;54.86
14966;BME280;7577;45.226;5.798;2023-05-14T00:04:38;98983.56;;;22.06;54.85
14966;BME280;7577;45.226;5.798;2023-05-14T00:07:08;98985.50;;;22.05;54.81
14966;BME280;7577;45.226;5.798;2023-05-14T00:09:38;98986.66;;;22.04;54.85
14966;BME280;7577;45.226;5.798;2023-05-14T00:12:09;98981.22;;;22.02;54.89
14966;BME280;7577;45.226;5.798;2023-05-14T00:14:39;98982.61;;;22.02;54.88
14966;BME280;7577;45.226;5.798;2023-05-14T00:17:09;98980.73;;;22.00;54.91
14966;BME280;7577;45.226;5.798;2023-05-14T00:19:39;98985.95;;;22.01;54.87
14966;BME280;7577;45.226;5.798;2023-05-14T00:22:09;98983.77;;;22.01;54.89
14966;BME280;7577;45.226;5.798;2023-05-14T00:24:40;98981.66;;;21.98;54.89
14966;BME280;7577;45.226;5.798;2023-05-14T00:27:10;98978.39;;;21.96;54.94
14966;BME280;7577;45.226;5.798;2023-05-14T00:29:40;98969.73;;;21.97;54.91
14966;BME280;7577;45.226;5.798;2023-05-14T00:32:10;98962.58;;;21.96;54.87
14966;BME280;7577;45.226;5.798;2023-05-14T00:34:40;98956.47;;;21.97;54.85
14966;BME280;7577;45.226;5.798;2023-05-14T00:37:10;98951.48;;;21.96;54.85
14966;BME280;7577;45.226;5.798;2023-05-14T00:39:40;98945.70;;;21.95;54.86
14966;BME280;7577;45.226;5.798;2023-05-14T00:42:11;98950.33;;;21.97;54.82
14966;BME280;7577;45.226;5.798;2023-05-14T00:44:41;98945.11;;;21.96;54.81
14966;BME280;7577;45.226;5.798;2023-05-14T00:47:11;98944.66;;;21.94;54.86
14966;BME280;7577;45.226;5.798;2023-05-14T00:52:20;98942.59;;;21.97;54.81
14966;BME280;7577;45.226;5.798;2023-05-14T00:54:51;98939.77;;;21.91;54.88
14966;BME280;7577;45.226;5.798;2023-05-14T00:57:21;98941.42;;;21.92;54.85
14966;BME280;7577;45.226;5.798;2023-05-14T00:59:51;98938.38;;;21.91;54.88
14966;BME280;7577;45.226;5.798;2023-05-14T01:02:21;98937.59;;;21.90;54.85
14966;BME280;7577;45.226;5.798;2023-05-14T01:04:52;98934.22;;;21.91;54.86
14966;BME280;7577;45.226;5.798;2023-05-14T01:07:27;98923.72;;;21.90;54.82
14966;BME280;7577;45.226;5.798;2023-05-14T01:12:42;98925.11;;;21.90;54.80
14966;BME280;7577;45.226;5.798;2023-05-14T01:17:58;98922.34;;;21.90;54.83
14966;BME280;7577;45.226;5.798;2023-05-14T01:20:28;98928.22;;;21.89;54.80
14966;BME280;7577;45.226;5.798;2023-05-14T01:22:58;98924.06;;;21.89;54.81
14966;BME280;7577;45.226;5.798;2023-05-14T01:25:29;98924.95;;;21.87;54.81
14966;BME280;7577;45.226;5.798;2023-05-14T01:28:04;98920.23;;;21.87;54.78
14966;BME280;7577;45.226;5.798;2023-05-14T01:30:36;98919.77;;;21.85;54.76
14966;BME280;7577;45.226;5.798;2023-05-14T01:33:09;98917.56;;;21.85;54.77
14966;BME280;7577;45.226;5.798;2023-05-14T01:35:40;98916.74;;;21.84;54.73
14966;BME280;7577;45.226;5.798;2023-05-14T01:38:13;98915.72;;;21.83;54.75
14966;BME280;7577;45.226;5.798;2023-05-14T01:40:45;98916.52;;;21.83;54.71
14966;BME280;7577;45.226;5.798;2023-05-14T01:43:16;98916.28;;;21.82;54.70
14966;BME280;7577;45.226;5.798;2023-05-14T01:45:46;98919.05;;;21.82;54.72
14966;BME280;7577;45.226;5.798;2023-05-14T01:48:16;98919.39;;;21.81;54.75
14966;BME280;7577;45.226;5.798;2023-05-14T01:50:46;98913.28;;;21.81;54.72
14966;BME280;7577;45.226;5.798;2023-05-14T01:53:16;98919.39;;;21.81;54.69
14966;BME280;7577;45.226;5.798;2023-05-14T01:58:24;98920.90;;;21.84;54.66
14966;BME280;7577;45.226;5.798;2023-05-14T02:00:54;98921.34;;;21.80;54.68
14966;BME280;7577;45.226;5.798;2023-05-14T02:03:24;98919.39;;;21.81;54.64
14966;BME280;7577;45.226;5.798;2023-05-14T02:05:54;98919.16;;;21.80;54.64
14966;BME280;7577;45.226;5.798;2023-05-14T02:08:25;98921.11;;;21.79;54.61
14966;BME280;7577;45.226;5.798;2023-05-14T02:13:32;98915.23;;;21.81;54.57
14966;BME280;7577;45.226;5.798;2023-05-14T02:16:03;98917.55;;;21.79;54.54
14966;BME280;7577;45.226;5.798;2023-05-14T02:18:33;98920.55;;;21.80;54.50
14966;BME280;7577;45.226;5.798;2023-05-14T02:21:04;98920.31;;;21.79;54.52
14966;BME280;7577;45.226;5.798;2023-05-14T02:23:34;98921.70;;;21.79;54.52
14966;BME280;7577;45.226;5.798;2023-05-14T02:26:04;98918.44;;;21.77;54.55
14966;BME280;7577;45.226;5.798;2023-05-14T02:28:34;98915.20;;;21.75;54.55
14966;BME280;7577;45.226;5.798;2023-05-14T02:31:06;98918.87;;;21.73;54.54
14966;BME280;7577;45.226;5.798;2023-05-14T02:36:13;98916.59;;;21.75;54.55
14966;BME280;7577;45.226;5.798;2023-05-14T02:38:45;98910.89;;;21.71;54.54
14966;BME280;7577;45.226;5.798;2023-05-14T02:43:56;98911.25;;;21.70;54.59
14966;BME280;7577;45.226;5.798;2023-05-14T02:46:27;98915.71;;;21.68;54.56
14966;BME280;7577;45.226;5.798;2023-05-14T02:48:57;98916.61;;;21.66;54.55
14966;BME280;7577;45.226;5.798;2023-05-14T02:51:27;98915.71;;;21.68;54.48
14966;BME280;7577;45.226;5.798;2023-05-14T02:53:57;98910.66;;;21.70;54.44
14966;BME280;7577;45.226;5.798;2023-05-14T02:56:27;98909.87;;;21.70;54.41
14966;BME280;7577;45.226;5.798;2023-05-14T02:58:58;98912.64;;;21.70;54.38
14966;BME280;7577;45.226;5.798;2023-05-14T03:01:28;98910.43;;;21.69;54.41
14966;BME280;7577;45.226;5.798;2023-05-14T03:03:58;98905.71;;;21.70;54.43
14966;BME280;7577;45.226;5.798;2023-05-14T03:09:05;98903.95;;;21.71;54.40
14966;BME280;7577;45.226;5.798;2023-05-14T03:11:36;98904.36;;;21.67;54.40
14966;BME280;7577;45.226;5.798;2023-05-14T03:16:43;98902.58;;;21.71;54.36
14966;BME280;7577;45.226;5.798;2023-05-14T03:19:14;98905.42;;;21.69;54.34
14966;BME280;7577;45.226;5.798;2023-05-14T03:21:43;98900.80;;;21.67;54.34
14966;BME280;7577;45.226;5.798;2023-05-14T03:24:14;98901.13;;;21.65;54.35
14966;BME280;7577;45.226;5.798;2023-05-14T03:26:44;98907.50;;;21.66;54.36
14966;BME280;7577;45.226;5.798;2023-05-14T03:29:14;98906.34;;;21.67;54.35
14966;BME280;7577;45.226;5.798;2023-05-14T03:31:46;98901.70;;;21.65;54.37
14966;BME280;7577;45.226;5.798;2023-05-14T03:34:16;98906.45;;;21.64;54.36
14966;BME280;7577;45.226;5.798;2023-05-14T03:36:46;98898.92;;;21.65;54.36
14966;BME280;7577;45.226;5.798;2023-05-14T03:39:16;98902.85;;;21.64;54.34
14966;BME280;7577;45.226;5.798;2023-05-14T03:41:48;98905.95;;;21.62;54.35
14966;BME280;7577;45.226;5.798;2023-05-14T03:44:18;98907.01;;;21.64;54.34
14966;BME280;7577;45.226;5.798;2023-05-14T03:46:49;98905.16;;;21.62;54.34
14966;BME280;7577;45.226;5.798;2023-05-14T03:49:19;98901.00;;;21.62;54.34
14966;BME280;7577;45.226;5.798;2023-05-14T03:51:49;98904.34;;;21.61;54.32
14966;BME280;7577;45.226;5.798;2023-05-14T03:56:57;98902.95;;;21.61;54.39
14966;BME280;7577;45.226;5.798;2023-05-14T03:59:27;98901.67;;;21.59;54.38
14966;BME280;7577;45.226;5.798;2023-05-14T04:01:57;98897.05;;;21.57;54.41
14966;BME280;7577;45.226;5.798;2023-05-14T04:04:28;98901.21;;;21.57;54.40
14966;BME280;7577;45.226;5.798;2023-05-14T04:06:58;98903.39;;;21.57;54.42
14966;BME280;7577;45.226;5.798;2023-05-14T04:09:28;98890.91;;;21.57;54.44
14966;BME280;7577;45.226;5.798;2023-05-14T04:11:58;98894.61;;;21.55;54.45
14966;BME280;7577;45.226;5.798;2023-05-14T04:14:28;98896.45;;;21.57;54.44
14966;BME280;7577;45.226;5.798;2023-05-14T04:16:58;98885.70;;;21.56;54.44
14966;BME280;7577;45.226;5.798;2023-05-14T04:19:28;98890.45;;;21.55;54.50
14966;BME280;7577;45.226;5.798;2023-05-14T04:21:59;98890.69;;;21.56;54.48
14966;BME280;7577;45.226;5.798;2023-05-14T04:27:07;98887.25;;;21.59;54.52
14966;BME280;7577;45.226;5.798;2023-05-14T04:29:37;98886.76;;;21.57;54.75
14966;BME280;7577;45.226;5.798;2023-05-14T04:32:07;98891.97;;;21.59;54.68
14966;BME280;7577;45.226;5.798;2023-05-14T04:34:38;98883.32;;;21.60;54.74
14966;BME280;7577;45.226;5.798;2023-05-14T04:37:08;98893.13;;;21.58;54.73
14966;BME280;7577;45.226;5.798;2023-05-14T04:39:38;98897.64;;;21.62;55.07
14966;BME280;7577;45.226;5.798;2023-05-14T04:42:09;98887.61;;;21.64;55.32
14966;BME280;7577;45.226;5.798;2023-05-14T04:44:39;98894.03;;;21.70;56.20
14966;BME280;7577;45.226;5.798;2023-05-14T04:47:09;98896.23;;;21.71;56.33
14966;BME280;7577;45.226;5.798;2023-05-14T04:49:40;98893.13;;;21.72;56.17
14966;BME280;7577;45.226;5.798;2023-05-14T04:52:11;98889.42;;;21.74;56.32
14966;BME280;7577;45.226;5.798;2023-05-14T04:54:41;98897.97;;;21.75;56.35
14966;BME280;7577;45.226;5.798;2023-05-14T04:57:11;98889.66;;;21.75;56.34
14966;BME280;7577;45.226;5.798;2023-05-14T04:59:41;98897.19;;;21.75;56.66
14966;BME280;7577;45.226;5.798;2023-05-14T05:02:12;98896.03;;;21.76;56.45
14966;BME280;7577;45.226;5.798;2023-05-14T05:04:42;98898.23;;;21.76;56.44
14966;BME280;7577;45.226;5.798;2023-05-14T05:07:12;98899.62;;;21.76;56.39
14966;BME280;7577;45.226;5.798;2023-05-14T05:09:42;98905.39;;;21.77;56.41
14966;BME280;7577;45.226;5.798;2023-05-14T05:12:12;98907.58;;;21.78;56.40
14966;BME280;7577;45.226;5.798;2023-05-14T05:17:21;98900.70;;;21.84;56.33
14966;BME280;7577;45.226;5.798;2023-05-14T05:19:51;98903.91;;;21.80;56.29
14966;BME280;7577;45.226;5.798;2023-05-14T05:22:21;98906.45;;;21.79;56.34
14966;BME280;7577;45.226;5.798;2023-05-14T05:27:30;98909.59;;;21.89;56.23
14966;BME280;7577;45.226;5.798;2023-05-14T05:32:39;98901.05;;;21.88;56.12
14966;BME280;7577;45.226;5.798;2023-05-14T05:35:10;98906.36;;;21.87;56.15
14966;BME280;7577;45.226;5.798;2023-05-14T05:40:18;98908.13;;;21.92;56.07
14966;BME280;7577;45.226;5.798;2023-05-14T05:42:48;98910.98;;;21.89;56.04
14966;BME280;7577;45.226;5.798;2023-05-14T05:45:18;98907.41;;;21.89;56.03
14966;BME280;7577;45.226;5.798;2023-05-14T05:50:29;98914.38;;;21.95;55.98
14966;BME280;7577;45.226;5.798;2023-05-14T05:53:00;98914.96;;;21.94;55.92
14966;BME280;7577;45.226;5.798;2023-05-14T05:55:30;98918.30;;;21.94;56.03
14966;BME280;7577;45.226;5.798;2023-05-14T06:00:38;98908.98;;;21.98;56.13
14966;BME280;7577;45.226;5.798;2023-05-14T06:03:08;98915.09;;;21.98;56.14
14966;BME280;7577;45.226;5.798;2023-05-14T06:05:38;98908.98;;;21.98;56.21
14966;BME280;7577;45.226;5.798;2023-05-14T06:10:49;98911.53;;;22.03;56.55
14966;BME280;7577;45.226;5.798;2023-05-14T06:15:57;98908.32;;;22.08;56.41
14966;BME280;7577;45.226;5.798;2023-05-14T06:21:05;98904.28;;;22.11;57.05
14966;BME280;7577;45.226;5.798;2023-05-14T06:26:13;98902.56;;;22.18;57.51
14966;BME280;7577;45.226;5.798;2023-05-14T06:28:43;98899.91;;;22.16;57.29
14966;BME280;7577;45.226;5.798;2023-05-14T06:31:13;98902.56;;;22.18;57.06
14966;BME280;7577;45.226;5.798;2023-05-14T06:33:43;98899.91;;;22.16;57.21
14966;BME280;7577;45.226;5.798;2023-05-14T06:36:13;98901.78;;;22.18;57.27
14966;BME280;7577;45.226;5.798;2023-05-14T06:38:43;98896.34;;;22.22;57.36
14966;BME280;7577;45.226;5.798;2023-05-14T06:41:13;98899.12;;;22.22;57.21
14966;BME280;7577;45.226;5.798;2023-05-14T06:43:43;98897.39;;;22.23;57.17
14966;BME280;7577;45.226;5.798;2023-05-14T06:46:13;98892.87;;;22.24;57.12
14966;BME280;7577;45.226;5.798;2023-05-14T06:51:21;98896.02;;;22.29;57.10
14966;BME280;7577;45.226;5.798;2023-05-14T06:53:52;98895.30;;;22.26;57.09
14966;BME280;7577;45.226;5.798;2023-05-14T06:56:22;98898.56;;;22.28;57.11
14966;BME280;7577;45.226;5.798;2023-05-14T06:58:52;98902.62;;;22.31;57.09
14966;BME280;7577;45.226;5.798;2023-05-14T07:01:22;98900.30;;;22.33;57.05
14966;BME280;7577;45.226;5.798;2023-05-14T07:03:52;98904.13;;;22.34;57.13
14966;BME280;7577;45.226;5.798;2023-05-14T07:06:22;98898.80;;;22.35;57.08
14966;BME280;7577;45.226;5.798;2023-05-14T07:08:52;98899.52;;;22.38;57.08
14966;BME280;7577;45.226;5.798;2023-05-14T07:11:22;98900.79;;;22.41;57.08
14966;BME280;7577;45.226;5.798;2023-05-14T07:16:33;98905.33;;;22.45;57.10
14966;BME280;7577;45.226;5.798;2023-05-14T07:19:03;98901.02;;;22.42;57.32
14966;BME280;7577;45.226;5.798;2023-05-14T07:21:34;98899.52;;;22.44;57.45
14966;BME280;7577;45.226;5.798;2023-05-14T07:26:49;98885.81;;;22.48;57.14
14966;BME280;7577;45.226;5.798;2023-05-14T07:29:19;98895.87;;;22.46;57.12
14966;BME280;7577;45.226;5.798;2023-05-14T07:31:50;98890.05;;;22.45;57.02
14966;BME280;7577;45.226;5.798;2023-05-14T07:34:20;98891.70;;;22.46;56.98
14966;BME280;7577;45.226;5.798;2023-05-14T07:36:50;98891.14;;;22.47;56.93
14966;BME280;7577;45.226;5.798;2023-05-14T07:41:58;98887.87;;;22.51;56.80
14966;BME280;7577;45.226;5.798;2023-05-14T07:47:08;98889.27;;;22.51;56.64
14966;BME280;7577;45.226;5.798;2023-05-14T07:52:17;98889.98;;;22.54;56.52
14966;BME280;7577;45.226;5.798;2023-05-14T07:54:47;98884.42;;;22.54;56.41
14966;BME280;7577;45.226;5.798;2023-05-14T07:59:55;98882.02;;;22.58;56.29
14966;BME280;7577;45.226;5.798;2023-05-14T08:05:03;98873.80;;;22.62;56.15
14966;BME280;7577;45.226;5.798;2023-05-14T08:07:34;98873.09;;;22.59;56.09
14966;BME280;7577;45.226;5.798;2023-05-14T08:10:05;98879.47;;;22.59;56.08
14966;BME280;7577;45.226;5.798;2023-05-14T08:12:36;98867.42;;;22.61;55.97
14966;BME280;7577;45.226;5.798;2023-05-14T08:15:08;98867.09;;;22.63;55.95
14966;BME280;7577;45.226;5.798;2023-05-14T08:17:38;98862.70;;;22.62;55.97
14966;BME280;7577;45.226;5.798;2023-05-14T08:20:10;98866.52;;;22.63;55.93
14966;BME280;7577;45.226;5.798;2023-05-14T08:22:40;98865.59;;;22.65;55.89
14966;BME280;7577;45.226;5.798;2023-05-14T08:25:11;98849.41;;;22.67;55.83
14966;BME280;7577;45.226;5.798;2023-05-14T08:27:41;98850.80;;;22.67;55.75
14966;BME280;7577;45.226;5.798;2023-05-14T08:30:15;98855.64;;;22.70;55.66
14966;BME280;7577;45.226;5.798;2023-05-14T08:35:23;98840.95;;;22.76;55.52
14966;BME280;7577;45.226;5.798;2023-05-14T08:37:54;98843.73;;;22.76;55.47
14966;BME280;7577;45.226;5.798;2023-05-14T08:43:03;98834.71;;;22.79;55.37
14966;BME280;7577;45.226;5.798;2023-05-14T08:45:36;98840.05;;;22.78;55.37
14966;BME280;7577;45.226;5.798;2023-05-14T08:48:10;98837.15;;;22.80;55.24
14966;BME280;7577;45.226;5.798;2023-05-14T08:50:41;98840.59;;;22.83;55.15
14966;BME280;7577;45.226;5.798;2023-05-14T08:53:12;98837.14;;;22.86;55.06
14966;BME280;7577;45.226;5.798;2023-05-14T08:55:43;98839.91;;;22.86;55.03
14966;BME280;7577;45.226;5.798;2023-05-14T08:58:15;98833.80;;;22.87;54.96
14966;BME280;7577;45.226;5.798;2023-05-14T09:00:46;98835.97;;;22.87;54.92
14966;BME280;7577;45.226;5.798;2023-05-14T09:03:17;98836.31;;;22.86;54.93
14966;BME280;7577;45.226;5.798;2023-05-14T09:08:26;98833.67;;;22.89;55.10
14966;BME280;7577;45.226;5.798;2023-05-14T09:13:38;98837.84;;;22.89;55.22
14966;BME280;7577;45.226;5.798;2023-05-14T09:16:08;98837.36;;;22.87;55.22
14966;BME280;7577;45.226;5.798;2023-05-14T09:18:42;98832.75;;;22.85;55.24
14966;BME280;7577;45.226;5.798;2023-05-14T09:21:14;98836.69;;;22.84;55.33
14966;BME280;7577;45.226;5.798;2023-05-14T09:23:45;98834.03;;;22.82;55.35
14966;BME280;7577;45.226;5.798;2023-05-14T09:26:18;98834.03;;;22.82;55.42
14966;BME280;7577;45.226;5.798;2023-05-14T09:28:49;98832.98;;;22.80;55.46
14966;BME280;7577;45.226;5.798;2023-05-14T09:33:58;98829.48;;;22.83;55.42
14966;BME280;7577;45.226;5.798;2023-05-14T09:36:29;98830.42;;;22.81;55.48
14966;BME280;7577;45.226;5.798;2023-05-14T09:39:03;98833.55;;;22.80;55.52
14966;BME280;7577;45.226;5.798;2023-05-14T09:41:34;98825.78;;;22.79;55.53
14966;BME280;7577;45.226;5.798;2023-05-14T09:44:05;98829.27;;;22.82;55.47
14966;BME280;7577;45.226;5.798;2023-05-14T09:46:35;98834.25;;;22.83;55.50
14966;BME280;7577;45.226;5.798;2023-05-14T09:49:06;98824.75;;;22.84;55.45
14966;BME280;7577;45.226;5.798;2023-05-14T09:54:14;98822.08;;;22.87;55.43
14966;BME280;7577;45.226;5.798;2023-05-14T09:56:45;98827.76;;;22.85;55.38
14966;BME280;7577;45.226;5.798;2023-05-14T10:01:56;98822.08;;;22.87;55.41
14966;BME280;7577;45.226;5.798;2023-05-14T10:04:27;98825.58;;;22.84;55.35
14966;BME280;7577;45.226;5.798;2023-05-14T10:06:57;98821.41;;;22.84;55.37
14966;BME280;7577;45.226;5.798;2023-05-14T10:09:30;98822.80;;;22.84;55.35
14966;BME280;7577;45.226;5.798;2023-05-14T10:12:00;98831.02;;;22.87;55.35
14966;BME280;7577;45.226;5.798;2023-05-14T10:17:11;98830.67;;;22.88;55.40
14966;BME280;7577;45.226;5.798;2023-05-14T10:19:46;98823.94;;;22.83;55.46
14966;BME280;7577;45.226;5.798;2023-05-14T10:22:20;98820.14;;;22.82;55.49
14966;BME280;7577;45.226;5.798;2023-05-14T10:27:30;98818.03;;;22.85;55.50
14966;BME280;7577;45.226;5.798;2023-05-14T10:30:04;98815.38;;;22.82;55.48
14966;BME280;7577;45.226;5.798;2023-05-14T10:35:19;98807.75;;;22.85;55.57
14966;BME280;7577;45.226;5.798;2023-05-14T10:37:51;98812.36;;;22.87;55.47
14966;BME280;7577;45.226;5.798;2023-05-14T10:40:23;98813.30;;;22.85;55.58
14966;BME280;7577;45.226;5.798;2023-05-14T10:42:54;98813.63;;;22.90;55.50
14966;BME280;7577;45.226;5.798;2023-05-14T10:45:27;98804.61;;;22.93;55.54
14966;BME280;7577;45.226;5.798;2023-05-14T10:47:58;98817.47;;;22.97;55.77
14966;BME280;7577;45.226;5.798;2023-05-14T10:50:29;98812.14;;;22.98;56.03
14966;BME280;7577;45.226;5.798;2023-05-14T10:53:01;98810.97;;;22.99;56.07
14966;BME280;7577;45.226;5.798;2023-05-14T10:55:31;98808.07;;;23.02;56.12
14966;BME280;7577;45.226;5.798;2023-05-14T10:58:03;98809.12;;;23.03;56.10
14966;BME280;7577;45.226;5.798;2023-05-14T11:00:34;98806.66;;;23.08;56.06
14966;BME280;7577;45.226;5.798;2023-05-14T11:03:05;98803.80;;;23.10;56.07
14966;BME280;7577;45.226;5.798;2023-05-14T11:05:36;98809.35;;;23.10;56.08
14966;BME280;7577;45.226;5.798;2023-05-14T11:08:08;98799.02;;;23.11;56.14
14966;BME280;7577;45.226;5.798;2023-05-14T11:13:20;98797.66;;;23.23;55.96
14966;BME280;7577;45.226;5.798;2023-05-14T11:15:50;98799.61;;;23.22;56.06
14966;BME280;7577;45.226;5.798;2023-05-14T11:18:28;98796.48;;;23.24;56.06
14966;BME280;7577;45.226;5.798;2023-05-14T11:21:01;98788.97;;;23.24;55.94
14966;BME280;7577;45.226;5.798;2023-05-14T11:26:13;98783.73;;;23.29;56.35
14966;BME280;7577;45.226;5.798;2023-05-14T11:28:44;98784.77;;;23.30;56.69
14966;BME280;7577;45.226;5.798;2023-05-14T11:33:56;98778.71;;;23.40;57.07
14966;BME280;7577;45.226;5.798;2023-05-14T11:36:26;98782.75;;;23.43;57.23
14966;BME280;7577;45.226;5.798;2023-05-14T11:41:34;98780.41;;;23.51;57.22
14966;BME280;7577;45.226;5.798;2023-05-14T11:44:04;98785.19;;;23.50;57.59
14966;BME280;7577;45.226;5.798;2023-05-14T11:46:35;98787.02;;;23.52;57.46
14966;BME280;7577;45.226;5.798;2023-05-14T11:49:05;98782.16;;;23.49;57.88
14966;BME280;7577;45.226;5.798;2023-05-14T11:51:36;98777.41;;;23.50;58.04
14966;BME280;7577;45.226;5.798;2023-05-14T11:56:49;98778.84;;;23.44;58.09
14966;BME280;7577;45.226;5.798;2023-05-14T11:59:19;98781.05;;;23.38;58.06
14966;BME280;7577;45.226;5.798;2023-05-14T12:01:50;98774.80;;;23.35;58.03
14966;BME280;7577;45.226;5.798;2023-05-14T12:04:21;98777.80;;;23.36;57.88
14966;BME280;7577;45.226;5.798;2023-05-14T12:06:52;98769.23;;;23.35;57.75
14966;BME280;7577;45.226;5.798;2023-05-14T12:12:06;98761.12;;;23.36;57.48
14966;BME280;7577;45.226;5.798;2023-05-14T12:14:36;98763.80;;;23.33;57.37
14966;BME280;7577;45.226;5.798;2023-05-14T12:17:12;98765.41;;;23.34;57.24
14966;BME280;7577;45.226;5.798;2023-05-14T12:19:44;98762.19;;;23.32;57.19
14966;BME280;7577;45.226;5.798;2023-05-14T12:22:16;98758.84;;;23.32;57.10
14966;BME280;7577;45.226;5.798;2023-05-14T12:24:53;98760.58;;;23.31;57.00
14966;BME280;7577;45.226;5.798;2023-05-14T12:27:24;98766.80;;;23.34;56.90
14966;BME280;7577;45.226;5.798;2023-05-14T12:29:59;98756.06;;;23.32;56.72
14966;BME280;7577;45.226;5.798;2023-05-14T12:32:33;98753.03;;;23.31;56.63
14966;BME280;7577;45.226;5.798;2023-05-14T12:35:04;98745.04;;;23.30;56.52
14966;BME280;7577;45.226;5.798;2023-05-14T12:40:13;98740.39;;;23.34;56.39
14966;BME280;7577;45.226;5.798;2023-05-14T12:42:43;98745.52;;;23.32;56.23
14966;BME280;7577;45.226;5.798;2023-05-14T12:47:51;98742.70;;;23.38;56.00
14966;BME280;7577;45.226;5.798;2023-05-14T12:52:59;98743.39;;;23.41;55.80
14966;BME280;7577;45.226;5.798;2023-05-14T12:55:29;98741.91;;;23.37;55.80
14966;BME280;7577;45.226;5.798;2023-05-14T12:58:01;98742.48;;;23.37;55.77
14966;BME280;7577;45.226;5.798;2023-05-14T13:00:31;98751.64;;;23.37;55.69
14966;BME280;7577;45.226;5.798;2023-05-14T13:03:01;98740.64;;;23.35;55.73
14966;BME280;7577;45.226;5.798;2023-05-14T13:05:32;98738.09;;;23.36;55.73
14966;BME280;7577;45.226;5.798;2023-05-14T13:08:02;98741.78;;;23.34;55.79
14966;BME280;7577;45.226;5.798;2023-05-14T13:10:32;98743.17;;;23.34;55.86
14966;BME280;7577;45.226;5.798;2023-05-14T13:13:02;98752.91;;;23.34;55.88
14966;BME280;7577;45.226;5.798;2023-05-14T13:15:32;98749.33;;;23.33;55.92
14966;BME280;7577;45.226;5.798;2023-05-14T13:18:03;98742.03;;;23.35;56.09
14966;BME280;7577;45.226;5.798;2023-05-14T13:20:33;98740.52;;;23.37;57.22
14966;BME280;7577;45.226;5.798;2023-05-14T13:23:04;98734.83;;;23.40;57.56
14966;BME280;7577;45.226;5.798;2023-05-14T13:25:34;98740.95;;;23.45;57.29
14966;BME280;7577;45.226;5.798;2023-05-14T13:28:05;98724.11;;;23.54;57.01
14966;BME280;7577;45.226;5.798;2023-05-14T13:30:35;98722.37;;;23.55;56.76
14966;BME280;7577;45.226;5.798;2023-05-14T13:33:05;98722.92;;;23.61;56.50
14966;BME280;7577;45.226;5.798;2023-05-14T13:38:14;98706.77;;;23.66;56.05
14966;BME280;7577;45.226;5.798;2023-05-14T13:40:44;98711.63;;;23.69;55.79
14966;BME280;7577;45.226;5.798;2023-05-14T13:43:14;98707.28;;;23.78;55.53
14966;BME280;7577;45.226;5.798;2023-05-14T13:45:45;98709.44;;;23.84;55.22
14966;BME280;7577;45.226;5.798;2023-05-14T13:48:15;98703.31;;;23.85;55.02
14966;BME280;7577;45.226;5.798;2023-05-14T13:50:47;98702.82;;;23.89;54.91
14966;BME280;7577;45.226;5.798;2023-05-14T13:53:17;98703.76;;;23.93;54.70
14966;BME280;7577;45.226;5.798;2023-05-14T13:55:48;98703.14;;;23.99;54.49
14966;BME280;7577;45.226;5.798;2023-05-14T13:58:21;98702.64;;;24.03;54.30
14966;BME280;7577;45.226;5.798;2023-05-14T14:00:53;98695.83;;;24.01;54.18
14966;BME280;7577;45.226;5.798;2023-05-14T14:06:04;98696.88;;;23.96;54.20
14966;BME280;7577;45.226;5.798;2023-05-14T14:08:35;98693.41;;;23.93;54.26
14966;BME280;7577;45.226;5.798;2023-05-14T14:11:05;98696.44;;;23.88;54.37
14966;BME280;7577;45.226;5.798;2023-05-14T14:16:18;98684.79;;;23.83;54.67
14966;BME280;7577;45.226;5.798;2023-05-14T14:18:48;98685.71;;;23.81;54.68
14966;BME280;7577;45.226;5.798;2023-05-14T14:21:18;98695.09;;;23.82;54.66
14966;BME280;7577;45.226;5.798;2023-05-14T14:23:49;98688.14;;;23.82;54.67
14966;BME280;7577;45.226;5.798;2023-05-14T14:26:19;98677.72;;;23.79;54.66
14966;BME280;7577;45.226;5.798;2023-05-14T14:28:50;98689.80;;;23.77;54.62
14966;BME280;7577;45.226;5.798;2023-05-14T14:31:20;98683.20;;;23.76;55.47
14966;BME280;7577;45.226;5.798;2023-05-14T14:33:50;98704.88;;;23.76;54.88
14966;BME280;7577;45.226;5.798;2023-05-14T14:38:58;98711.50;;;23.72;54.95
14966;BME280;7577;45.226;5.798;2023-05-14T14:44:07;98719.06;;;23.65;55.00
14966;BME280;7577;45.226;5.798;2023-05-14T14:46:38;98724.06;;;23.60;55.06
14966;BME280;7577;45.226;5.798;2023-05-14T14:49:08;98723.76;;;23.55;55.21
14966;BME280;7577;45.226;5.798;2023-05-14T14:51:38;98724.02;;;23.50;55.23
14966;BME280;7577;45.226;5.798;2023-05-14T14:54:09;98724.72;;;23.47;55.29
14966;BME280;7577;45.226;5.798;2023-05-14T14:56:39;98716.28;;;23.44;55.33
14966;BME280;7577;45.226;5.798;2023-05-14T14:59:10;98708.42;;;23.40;55.40
14966;BME280;7577;45.226;5.798;2023-05-14T15:01:41;98711.33;;;23.37;55.52
14966;BME280;7577;45.226;5.798;2023-05-14T15:04:12;98712.25;;;23.35;55.53
14966;BME280;7577;45.226;5.798;2023-05-14T15:06:42;98715.76;;;23.32;55.58
14966;BME280;7577;45.226;5.798;2023-05-14T15:09:12;98726.63;;;23.31;55.60
14966;BME280;7577;45.226;5.798;2023-05-14T15:11:42;98740.08;;;23.29;55.62
14966;BME280;7577;45.226;5.798;2023-05-14T15:16:52;98745.42;;;23.28;55.68
14966;BME280;7577;45.226;5.798;2023-05-14T15:19:22;98749.45;;;23.25;55.72
14966;BME280;7577;45.226;5.798;2023-05-14T15:21:52;98758.97;;;23.24;55.78
14966;BME280;7577;45.226;5.798;2023-05-14T15:24:22;98759.53;;;23.23;55.79
14966;BME280;7577;45.226;5.798;2023-05-14T15:29:31;98764.75;;;23.25;55.84
14966;BME280;7577;45.226;5.798;2023-05-14T15:32:03;98767.08;;;23.23;55.87
14966;BME280;7577;45.226;5.798;2023-05-14T15:34:33;98765.91;;;23.24;55.90
14966;BME280;7577;45.226;5.798;2023-05-14T15:37:03;98761.05;;;23.27;55.84
14966;BME280;7577;45.226;5.798;2023-05-14T15:39:33;98750.25;;;23.31;55.78
14966;BME280;7577;45.226;5.798;2023-05-14T15:42:04;98756.16;;;23.36;55.66
14966;BME280;7577;45.226;5.798;2023-05-14T15:44:35;98747.00;;;23.41;55.58
14966;BME280;7577;45.226;5.798;2023-05-14T15:47:06;98748.22;;;23.50;55.41
14966;BME280;7577;45.226;5.798;2023-05-14T15:49:37;98751.75;;;23.62;55.32
14966;BME280;7577;45.226;5.798;2023-05-14T15:52:12;98751.69;;;23.80;55.06
14966;BME280;7577;45.226;5.798;2023-05-14T15:54:45;98749.13;;;24.03;54.54